sensor_id;sensor_type;location;lat;lon;timestamp;pressure;altitude;pressure_sealevel;temperature;humidity
47753;BME280;2038;51.728;6.674;2023-02-21T00:00:52;101334.03;;;10.06;100.00
47753;BME280;2038;51.728;6.674;2023-02-21T00:03:39;101339.66;;;10.02;100.00
47753;BME280;2038;51.728;6.674;2023-02-21T00:06:27;101342.75;;;9.98;100.00
47753;BME280;2038;51.728;6.674;2023-02-21T00:09:13;101340.03;;;10.07;100.00
47753;BME280;2038;51.728;6.674;2023-02-21T00:11:58;101342.03;;;10.11;100.00
47753;BME280;2038;51.728;6.674;2023-02-21T00:14:47;101343.16;;;10.14;100.00
47753;BME280;2038;51.728;6.674;2023-02-21T00:17:35;101348.31;;;10.04;100.00
47753;BME280;2038;51.728;6.674;2023-02-21T00:20:24;101334.31;;;9.99;100.00
47753;BME280;2038;51.728;6.674;2023-02-21T00:23:12;101332.13;;;10.04;100.00
47753;BME280;2038;51.728;6.674;2023-02-21T00:26:01;101337.13;;;10.02;100.00
47753;BME280;2038;51.728;6.674;2023-02-21T00:28:45;101331.69;;;9.98;100.00
47753;BME280;2038;51.728;6.674;2023-02-21T00:31:37;101334.50;;;10.12;100.00
47753;BME280;2038;51.728;6.674;2023-02-21T00:34:24;101328.63;;;10.13;100.00
47753;BME280;2038;51.728;6.674;2023-02-21T00:37:16;101325.91;;;10.00;100.00
47753;BME280;2038;51.728;6.674;2023-02-21T00:40:09;101331.44;;;9.95;100.00
47753;BME280;2038;51.728;6.674;2023-02-21T00:43:01;101332.13;;;10.04;100.00
47753;BME280;2038;51.728;6.674;2023-02-21T00:45:49;101338.00;;;10.03;100.00
47753;BME280;2038;51.728;6.674;2023-02-21T00:48:37;101330.38;;;10.03;100.00
47753;BME280;2038;51.728;6.674;2023-02-21T00:51:26;101325.31;;;10.14;100.00
47753;BME280;2038;51.728;6.674;2023-02-21T00:54:13;101325.31;;;10.14;100.00
47753;BME280;2038;51.728;6.674;2023-02-21T00:56:58;101324.56;;;10.15;100.00
47753;BME280;2038;51.728;6.674;2023-02-21T00:59:44;101315.41;;;10.17;100.00
47753;BME280;2038;51.728;6.674;2023-02-21T01:02:34;101313.22;;;10.12;100.00
47753;BME280;2038;51.728;6.674;2023-02-21T01:05:24;101318.75;;;10.06;100.00
47753;BME280;2038;51.728;6.674;2023-02-21T01:08:12;101319.22;;;10.12;100.00
47753;BME280;2038;51.728;6.674;2023-02-21T01:10:59;101317.09;;;10.07;100.00
47753;BME280;2038;51.728;6.674;2023-02-21T01:13:44;101311.41;;;9.99;100.00
47753;BME280;2038;51.728;6.674;2023-02-21T01:16:30;101303.63;;;9.86;100.00
47753;BME280;2038;51.728;6.674;2023-02-21T01:19:16;101308.00;;;9.99;100.00
47753;BME280;2038;51.728;6.674;2023-02-21T01:22:03;101306.53;;;9.91;100.00
47753;BME280;2038;51.728;6.674;2023-02-21T01:24:50;101298.41;;;9.84;100.00
47753;BME280;2038;51.728;6.674;2023-02-21T01:27:35;101305.56;;;9.78;100.00
47753;BME280;2038;51.728;6.674;2023-02-21T01:30:20;101304.59;;;9.88;100.00
47753;BME280;2038;51.728;6.674;2023-02-21T01:33:04;101308.28;;;9.92;100.00
47753;BME280;2038;51.728;6.674;2023-02-21T01:35:49;101301.47;;;10.02;100.00
47753;BME280;2038;51.728;6.674;2023-02-21T01:38:34;101299.09;;;9.94;100.00
47753;BME280;2038;51.728;6.674;2023-02-21T01:41:20;101288.22;;;9.84;100.00
47753;BME280;2038;51.728;6.674;2023-02-21T01:47:15;101297.56;;;9.96;100.00
47753;BME280;2038;51.728;6.674;2023-02-21T01:50:07;101291.13;;;9.89;100.00
47753;BME280;2038;51.728;6.674;2023-02-21T01:53:16;101293.78;;;9.91;100.00
47753;BME280;2038;51.728;6.674;2023-02-21T01:56:05;101289.56;;;9.91;100.00
47753;BME280;2038;51.728;6.674;2023-02-21T01:58:56;101281.59;;;9.86;100.00
47753;BME280;2038;51.728;6.674;2023-02-21T02:01:52;101282.59;;;9.88;100.00
47753;BME280;2038;51.728;6.674;2023-02-21T02:04:42;101291.88;;;9.88;100.00
47753;BME280;2038;51.728;6.674;2023-02-21T02:07:29;101289.81;;;9.94;100.00
47753;BME280;2038;51.728;6.674;2023-02-21T02:10:13;101291.88;;;9.88;100.00
47753;BME280;2038;51.728;6.674;2023-02-21T02:17:20;101283.47;;;9.89;100.00
47753;BME280;2038;51.728;6.674;2023-02-21T02:20:25;101287.50;;;9.97;100.00
47753;BME280;2038;51.728;6.674;2023-02-21T02:23:38;101278.75;;;9.94;100.00
47753;BME280;2038;51.728;6.674;2023-02-21T02:27:05;101276.97;;;9.93;100.00
47753;BME280;2038;51.728;6.674;2023-02-21T02:30:00;101274.28;;;9.91;100.00
47753;BME280;2038;51.728;6.674;2023-02-21T02:36:38;101268.38;;;9.80;100.00
47753;BME280;2038;51.728;6.674;2023-02-21T02:44:47;101274.38;;;9.81;100.00
47753;BME280;2038;51.728;6.674;2023-02-21T02:47:35;101272.72;;;9.81;100.00
47753;BME280;2038;51.728;6.674;2023-02-21T02:50:05;101275.25;;;9.81;100.00
47753;BME280;2038;51.728;6.674;2023-02-21T02:52:35;101275.25;;;9.81;100.00
47753;BME280;2038;51.728;6.674;2023-02-21T02:55:43;101280.22;;;9.80;100.00
47753;BME280;2038;51.728;6.674;2023-02-21T02:58:17;101281.25;;;9.82;100.00
47753;BME280;2038;51.728;6.674;2023-02-21T03:01:05;101280.88;;;9.77;100.00
47753;BME280;2038;51.728;6.674;2023-02-21T03:07:31;101280.22;;;9.80;100.00
47753;BME280;2038;51.728;6.674;2023-02-21T03:13:36;101271.25;;;9.73;100.00
47753;BME280;2038;51.728;6.674;2023-02-21T03:18:57;101270.13;;;9.70;100.00
47753;BME280;2038;51.728;6.674;2023-02-21T03:21:31;101273.06;;;9.64;100.00
47753;BME280;2038;51.728;6.674;2023-02-21T03:24:04;101276.09;;;9.70;100.00
47753;BME280;2038;51.728;6.674;2023-02-21T03:26:36;101278.16;;;9.64;100.00
47753;BME280;2038;51.728;6.674;2023-02-21T03:29:06;101266.56;;;9.68;100.00
47753;BME280;2038;51.728;6.674;2023-02-21T03:31:40;101274.19;;;9.68;100.00
47753;BME280;2038;51.728;6.674;2023-02-21T03:34:10;101274.84;;;9.65;100.00
47753;BME280;2038;51.728;6.674;2023-02-21T03:36:37;101265.88;;;9.59;100.00
47753;BME280;2038;51.728;6.674;2023-02-21T03:39:04;101280.88;;;9.56;100.00
47753;BME280;2038;51.728;6.674;2023-02-21T03:41:30;101280.25;;;9.58;100.00
47753;BME280;2038;51.728;6.674;2023-02-21T03:43:56;101265.50;;;9.54;100.00
47753;BME280;2038;51.728;6.674;2023-02-21T03:46:22;101277.34;;;9.54;100.00
47753;BME280;2038;51.728;6.674;2023-02-21T03:48:47;101277.69;;;9.58;100.00
47753;BME280;2038;51.728;6.674;2023-02-21T03:51:13;101277.94;;;9.61;100.00
47753;BME280;2038;51.728;6.674;2023-02-21T03:53:40;101275.84;;;9.67;100.00
47753;BME280;2038;51.728;6.674;2023-02-21T03:56:06;101282.13;;;9.61;100.00
47753;BME280;2038;51.728;6.674;2023-02-21T03:58:32;101275.38;;;9.61;100.00
47753;BME280;2038;51.728;6.674;2023-02-21T04:00:58;101277.53;;;9.67;100.00
47753;BME280;2038;51.728;6.674;2023-02-21T04:03:24;101277.31;;;9.75;100.00
47753;BME280;2038;51.728;6.674;2023-02-21T04:05:50;101277.59;;;9.78;100.00
47753;BME280;2038;51.728;6.674;2023-02-21T04:08:16;101268.50;;;9.60;100.00
47753;BME280;2038;51.728;6.674;2023-02-21T04:10:42;101283.25;;;9.64;100.00
47753;BME280;2038;51.728;6.674;2023-02-21T04:13:08;101267.56;;;9.70;100.00
47753;BME280;2038;51.728;6.674;2023-02-21T04:15:35;101282.31;;;9.74;100.00
47753;BME280;2038;51.728;6.674;2023-02-21T04:18:02;101277.22;;;9.74;100.00
47753;BME280;2038;51.728;6.674;2023-02-21T04:20:28;101276.78;;;9.79;100.00
47753;BME280;2038;51.728;6.674;2023-02-21T04:22:54;101278.88;;;9.73;100.00
47753;BME280;2038;51.728;6.674;2023-02-21T04:25:20;101280.94;;;9.67;100.00
47753;BME280;2038;51.728;6.674;2023-02-21T04:27:45;101278.34;;;9.77;100.00
47753;BME280;2038;51.728;6.674;2023-02-21T04:30:11;101267.66;;;9.71;100.00
47753;BME280;2038;51.728;6.674;2023-02-21T04:32:37;101274.38;;;9.81;100.00
47753;BME280;2038;51.728;6.674;2023-02-21T04:35:03;101275.25;;;9.81;100.00
47753;BME280;2038;51.728;6.674;2023-02-21T04:37:29;101277.75;;;9.70;100.00
47753;BME280;2038;51.728;6.674;2023-02-21T04:39:55;101279.09;;;9.76;100.00
47753;BME280;2038;51.728;6.674;2023-02-21T04:42:25;101279.09;;;9.76;100.00
47753;BME280;2038;51.728;6.674;2023-02-21T04:44:53;101283.44;;;9.77;100.00
47753;BME280;2038;51.728;6.674;2023-02-21T04:47:20;101278.44;;;9.79;100.00
47753;BME280;2038;51.728;6.674;2023-02-21T04:49:47;101278.44;;;9.79;100.00
47753;BME280;2038;51.728;6.674;2023-02-21T04:52:18;101274.16;;;9.78;100.00
47753;BME280;2038;51.728;6.674;2023-02-21T04:54:48;101270.03;;;9.80;100.00
47753;BME280;2038;51.728;6.674;2023-02-21T04:57:16;101275.03;;;9.78;100.00
47753;BME280;2038;51.728;6.674;2023-02-21T04:59:44;101273.34;;;9.79;100.00
47753;BME280;2038;51.728;6.674;2023-02-21T05:02:12;101268.75;;;9.85;100.00
47753;BME280;2038;51.728;6.674;2023-02-21T05:04:41;101273.06;;;9.86;100.00
47753;BME280;2038;51.728;6.674;2023-02-21T05:07:09;101267.19;;;9.87;100.00
47753;BME280;2038;51.728;6.674;2023-02-21T05:09:35;101269.84;;;9.88;100.00
47753;BME280;2038;51.728;6.674;2023-02-21T05:12:03;101271.28;;;9.85;100.00
47753;BME280;2038;51.728;6.674;2023-02-21T05:14:37;101272.81;;;9.83;100.00
47753;BME280;2038;51.728;6.674;2023-02-21T05:17:07;101274.25;;;9.79;100.00
47753;BME280;2038;51.728;6.674;2023-02-21T05:19:36;101266.50;;;9.78;100.00
47753;BME280;2038;51.728;6.674;2023-02-21T05:22:04;101275.13;;;9.80;100.00
47753;BME280;2038;51.728;6.674;2023-02-21T05:24:33;101269.06;;;9.78;100.00
47753;BME280;2038;51.728;6.674;2023-02-21T05:27:01;101265.47;;;9.76;100.00
47753;BME280;2038;51.728;6.674;2023-02-21T05:29:28;101270.34;;;9.73;100.00
47753;BME280;2038;51.728;6.674;2023-02-21T05:31:56;101284.41;;;9.79;100.00
47753;BME280;2038;51.728;6.674;2023-02-21T05:34:27;101275.34;;;9.83;100.00
47753;BME280;2038;51.728;6.674;2023-02-21T05:36:54;101278.78;;;9.83;100.00
47753;BME280;2038;51.728;6.674;2023-02-21T05:39:20;101279.69;;;9.84;100.00
47753;BME280;2038;51.728;6.674;2023-02-21T05:41:48;101277.38;;;9.87;100.00
47753;BME280;2038;51.728;6.674;2023-02-21T05:44:15;101276.50;;;9.86;100.00
47753;BME280;2038;51.728;6.674;2023-02-21T05:46:41;101274.06;;;9.88;100.00
47753;BME280;2038;51.728;6.674;2023-02-21T05:49:10;101279.28;;;9.90;100.00
47753;BME280;2038;51.728;6.674;2023-02-21T05:51:40;101273.97;;;9.86;100.00
47753;BME280;2038;51.728;6.674;2023-02-21T05:54:13;101275.63;;;9.86;100.00
47753;BME280;2038;51.728;6.674;2023-02-21T05:56:44;101271.88;;;9.93;100.00
47753;BME280;2038;51.728;6.674;2023-02-21T05:59:12;101264.34;;;9.94;100.00
47753;BME280;2038;51.728;6.674;2023-02-21T06:01:39;101264.75;;;9.88;100.00
47753;BME280;2038;51.728;6.674;2023-02-21T06:04:05;101266.41;;;9.88;100.00
47753;BME280;2038;51.728;6.674;2023-02-21T06:06:33;101265.44;;;9.86;100.00
47753;BME280;2038;51.728;6.674;2023-02-21T06:09:00;101270.34;;;9.95;100.00
47753;BME280;2038;51.728;6.674;2023-02-21T06:11:30;101265.13;;;9.93;100.00
47753;BME280;2038;51.728;6.674;2023-02-21T06:14:00;101272.53;;;9.90;100.00
47753;BME280;2038;51.728;6.674;2023-02-21T06:16:37;101271.28;;;9.85;100.00
47753;BME280;2038;51.728;6.674;2023-02-21T06:19:06;101267.97;;;9.86;100.00
47753;BME280;2038;51.728;6.674;2023-02-21T06:21:33;101270.00;;;9.90;100.00
47753;BME280;2038;51.728;6.674;2023-02-21T06:24:05;101262.03;;;9.97;100.00
47753;BME280;2038;51.728;6.674;2023-02-21T06:26:32;101261.00;;;9.95;100.00
47753;BME280;2038;51.728;6.674;2023-02-21T06:28:58;101267.00;;;9.96;100.00
47753;BME280;2038;51.728;6.674;2023-02-21T06:31:26;101258.03;;;9.89;100.00
47753;BME280;2038;51.728;6.674;2023-02-21T06:33:55;101261.31;;;9.88;100.00
47753;BME280;2038;51.728;6.674;2023-02-21T06:36:25;101265.97;;;9.82;100.00
47753;BME280;2038;51.728;6.674;2023-02-21T06:38:59;101263.78;;;9.86;100.00
47753;BME280;2038;51.728;6.674;2023-02-21T06:41:28;101276.28;;;9.95;100.00
47753;BME280;2038;51.728;6.674;2023-02-21T06:43:59;101263.28;;;9.80;100.00
47753;BME280;2038;51.728;6.674;2023-02-21T06:46:28;101265.16;;;9.83;100.00
47753;BME280;2038;51.728;6.674;2023-02-21T06:48:55;101263.13;;;9.89;100.00
47753;BME280;2038;51.728;6.674;2023-02-21T06:51:21;101269.28;;;9.81;100.00
47753;BME280;2038;51.728;6.674;2023-02-21T06:53:54;101266.38;;;9.76;100.00
47753;BME280;2038;51.728;6.674;2023-02-21T06:56:24;101270.75;;;9.89;100.00
47753;BME280;2038;51.728;6.674;2023-02-21T06:58:49;101269.63;;;9.85;100.00
47753;BME280;2038;51.728;6.674;2023-02-21T07:01:15;101271.50;;;9.88;100.00
47753;BME280;2038;51.728;6.674;2023-02-21T07:03:41;101276.38;;;9.85;100.00
47753;BME280;2038;51.728;6.674;2023-02-21T07:06:10;101265.31;;;9.84;100.00
47753;BME280;2038;51.728;6.674;2023-02-21T07:08:40;101274.72;;;9.85;100.00
47753;BME280;2038;51.728;6.674;2023-02-21T07:11:08;101279.09;;;9.76;100.00
47753;BME280;2038;51.728;6.674;2023-02-21T07:13:35;101276.78;;;9.79;100.00
47753;BME280;2038;51.728;6.674;2023-02-21T07:16:04;101284.25;;;9.88;100.00
47753;BME280;2038;51.728;6.674;2023-02-21T07:18:34;101281.59;;;9.86;100.00
47753;BME280;2038;51.728;6.674;2023-02-21T07:21:00;101276.16;;;9.82;100.00
47753;BME280;2038;51.728;6.674;2023-02-21T07:23:28;101283.88;;;9.83;100.00
47753;BME280;2038;51.728;6.674;2023-02-21T07:25:56;101281.69;;;9.88;100.00
47753;BME280;2038;51.728;6.674;2023-02-21T07:28:24;101279.50;;;9.93;100.00
47753;BME280;2038;51.728;6.674;2023-02-21T07:30:53;101276.81;;;9.91;100.00
47753;BME280;2038;51.728;6.674;2023-02-21T07:33:21;101276.72;;;9.90;100.00
47753;BME280;2038;51.728;6.674;2023-02-21T07:35:47;101285.25;;;9.90;100.00
47753;BME280;2038;51.728;6.674;2023-02-21T07:38:26;101284.47;;;9.91;100.00
47753;BME280;2038;51.728;6.674;2023-02-21T07:40:55;101282.59;;;9.88;100.00
47753;BME280;2038;51.728;6.674;2023-02-21T07:43:24;101283.88;;;9.83;100.00
47753;BME280;2038;51.728;6.674;2023-02-21T07:45:51;101286.16;;;9.91;100.00
47753;BME280;2038;51.728;6.674;2023-02-21T07:48:20;101295.31;;;9.88;100.00
47753;BME280;2038;51.728;6.674;2023-02-21T07:50:46;101286.03;;;9.89;100.00
47753;BME280;2038;51.728;6.674;2023-02-21T07:53:14;101291.66;;;9.85;100.00
47753;BME280;2038;51.728;6.674;2023-02-21T07:55:45;101288.88;;;9.82;100.00
47753;BME280;2038;51.728;6.674;2023-02-21T07:58:12;101291.28;;;9.80;100.00
47753;BME280;2038;51.728;6.674;2023-02-21T08:00:38;101290.63;;;9.83;100.00
47753;BME280;2038;51.728;6.674;2023-02-21T08:03:04;101291.88;;;9.88;100.00
47753;BME280;2038;51.728;6.674;2023-02-21T08:05:31;101294.56;;;9.90;100.00
47753;BME280;2038;51.728;6.674;2023-02-21T08:07:59;101293.97;;;9.82;100.00
47753;BME280;2038;51.728;6.674;2023-02-21T08:10:29;101293.19;;;9.83;100.00
47753;BME280;2038;51.728;6.674;2023-02-21T08:13:03;101293.53;;;9.87;100.00
47753;BME280;2038;51.728;6.674;2023-02-21T08:15:31;101295.44;;;9.90;100.00
47753;BME280;2038;51.728;6.674;2023-02-21T08:18:01;101293.88;;;9.92;100.00
47753;BME280;2038;51.728;6.674;2023-02-21T08:20:28;101290.34;;;9.90;100.00
47753;BME280;2038;51.728;6.674;2023-02-21T08:22:55;101291.25;;;9.91;100.00
47753;BME280;2038;51.728;6.674;2023-02-21T08:25:23;101293.00;;;9.92;100.00
47753;BME280;2038;51.728;6.674;2023-02-21T08:27:50;101290.72;;;9.95;100.00
47753;BME280;2038;51.728;6.674;2023-02-21T08:30:23;101283.06;;;9.95;100.00
47753;BME280;2038;51.728;6.674;2023-02-21T08:32:50;101280.63;;;9.96;100.00
47753;BME280;2038;51.728;6.674;2023-02-21T08:35:19;101281.47;;;9.85;100.00
47753;BME280;2038;51.728;6.674;2023-02-21T08:37:48;101279.59;;;9.82;100.00
47753;BME280;2038;51.728;6.674;2023-02-21T08:40:19;101287.63;;;9.99;100.00
47753;BME280;2038;51.728;6.674;2023-02-21T08:42:56;101286.16;;;9.91;100.00
47753;BME280;2038;51.728;6.674;2023-02-21T08:45:28;101284.16;;;9.86;100.00
47753;BME280;2038;51.728;6.674;2023-02-21T08:47:58;101284.25;;;9.88;100.00
47753;BME280;2038;51.728;6.674;2023-02-21T08:50:27;101289.16;;;9.97;100.00
47753;BME280;2038;51.728;6.674;2023-02-21T08:52:55;101293.78;;;9.91;100.00
47753;BME280;2038;51.728;6.674;2023-02-21T08:55:25;101288.56;;;9.89;100.00
47753;BME280;2038;51.728;6.674;2023-02-21T08:57:53;101288.69;;;9.91;100.00
47753;BME280;2038;51.728;6.674;2023-02-21T09:00:24;101289.03;;;9.95;100.00
47753;BME280;2038;51.728;6.674;2023-02-21T09:02:54;101291.88;;;9.88;100.00
47753;BME280;2038;51.728;6.674;2023-02-21T09:05:31;101290.53;;;9.81;100.00
47753;BME280;2038;51.728;6.674;2023-02-21T09:07:59;101293.97;;;9.82;100.00
47753;BME280;2038;51.728;6.674;2023-02-21T09:10:31;101284.41;;;9.79;100.00
47753;BME280;2038;51.728;6.674;2023-02-21T09:13:03;101284.84;;;9.74;100.00
47753;BME280;2038;51.728;6.674;2023-02-21T09:15:31;101286.03;;;9.67;100.00
47753;BME280;2038;51.728;6.674;2023-02-21T09:17:59;101289.41;;;9.56;100.00
47753;BME280;2038;51.728;6.674;2023-02-21T09:20:28;101273.28;;;9.67;100.00
47753;BME280;2038;51.728;6.674;2023-02-21T09:22:57;101291.78;;;9.65;100.00
47753;BME280;2038;51.728;6.674;2023-02-21T09:25:27;101290.56;;;9.71;100.00
47753;BME280;2038;51.728;6.674;2023-02-21T09:27:53;101275.22;;;9.70;100.00
47753;BME280;2038;51.728;6.674;2023-02-21T09:30:24;101280.53;;;9.73;100.00
47753;BME280;2038;51.728;6.674;2023-02-21T09:32:51;101279.47;;;9.81;100.00
47753;BME280;2038;51.728;6.674;2023-02-21T09:35:17;101276.16;;;9.82;100.00
47753;BME280;2038;51.728;6.674;2023-02-21T09:37:48;101275.88;;;9.79;100.00
47753;BME280;2038;51.728;6.674;2023-02-21T09:43:10;101283.06;;;9.73;100.00
47753;BME280;2038;51.728;6.674;2023-02-21T09:45:51;101276.16;;;9.82;100.00
47753;BME280;2038;51.728;6.674;2023-02-21T09:48:22;101277.28;;;9.85;100.00
47753;BME280;2038;51.728;6.674;2023-02-21T09:51:00;101284.38;;;9.90;100.00
47753;BME280;2038;51.728;6.674;2023-02-21T09:53:33;101271.72;;;9.91;100.00
47753;BME280;2038;51.728;6.674;2023-02-21T09:56:30;101278.16;;;9.86;100.00
47753;BME280;2038;51.728;6.674;2023-02-21T09:59:00;101276.72;;;9.90;100.00
47753;BME280;2038;51.728;6.674;2023-02-21T10:04:49;101266.66;;;9.91;100.00
47753;BME280;2038;51.728;6.674;2023-02-21T10:16:16;101266.25;;;9.97;100.00
47753;BME280;2038;51.728;6.674;2023-02-21T10:19:22;101270.78;;;10.01;100.00
47753;BME280;2038;51.728;6.674;2023-02-21T10:21:57;101269.00;;;10.00;100.00
47753;BME280;2038;51.728;6.674;2023-02-21T10:24:27;101280.31;;;10.03;100.00
47753;BME280;2038;51.728;6.674;2023-02-21T10:27:01;101275.13;;;10.02;100.00
47753;BME280;2038;51.728;6.674;2023-02-21T10:32:25;101277.97;;;10.16;100.00
47753;BME280;2038;51.728;6.674;2023-02-21T10:34:53;101276.91;;;10.03;100.00
47753;BME280;2038;51.728;6.674;2023-02-21T10:40:03;101280.03;;;10.10;100.00
47753;BME280;2038;51.728;6.674;2023-02-21T10:43:18;101283.94;;;10.17;100.00
47753;BME280;2038;51.728;6.674;2023-02-21T10:46:44;101276.94;;;10.14;100.00
47753;BME280;2038;51.728;6.674;2023-02-21T10:48:52;101287.31;;;10.06;100.00
47753;BME280;2038;51.728;6.674;2023-02-21T10:51:32;101295.03;;;10.07;100.00
47753;BME280;2038;51.728;6.674;2023-02-21T10:54:23;101287.41;;;10.07;100.00
47753;BME280;2038;51.728;6.674;2023-02-21T10:56:51;101287.19;;;10.04;100.00
47753;BME280;2038;51.728;6.674;2023-02-21T10:59:30;101288.03;;;10.15;100.00
47753;BME280;2038;51.728;6.674;2023-02-21T11:02:00;101292.06;;;10.01;100.00
47753;BME280;2038;51.728;6.674;2023-02-21T11:04:32;101284.22;;;10.10;100.00
47753;BME280;2038;51.728;6.674;2023-02-21T11:07:08;101286.19;;;10.02;100.00
47753;BME280;2038;51.728;6.674;2023-02-21T11:09:46;101283.09;;;10.06;100.00
47753;BME280;2038;51.728;6.674;2023-02-21T11:19:55;101272.66;;;10.25;100.00
47753;BME280;2038;51.728;6.674;2023-02-21T11:22:24;101272.00;;;10.27;100.00
47753;BME280;2038;51.728;6.674;2023-02-21T11:25:30;101272.13;;;10.29;100.00
47753;BME280;2038;51.728;6.674;2023-02-21T11:28:24;101278.09;;;10.29;100.00
47753;BME280;2038;51.728;6.674;2023-02-21T11:33:27;101272.13;;;10.29;100.00
47753;BME280;2038;51.728;6.674;2023-02-21T11:36:12;101274.13;;;10.33;100.00
47753;BME280;2038;51.728;6.674;2023-02-21T11:38:43;101270.34;;;10.40;100.00
47753;BME280;2038;51.728;6.674;2023-02-21T11:44:23;101269.78;;;10.32;100.00
47753;BME280;2038;51.728;6.674;2023-02-21T11:49:56;101258.06;;;10.34;100.00
47753;BME280;2038;51.728;6.674;2023-02-21T11:52:43;101254.75;;;10.35;100.00
47753;BME280;2038;51.728;6.674;2023-02-21T11:55:20;101255.06;;;10.40;100.00
47753;BME280;2038;51.728;6.674;2023-02-21T12:01:05;101261.41;;;10.56;100.00
47753;BME280;2038;51.728;6.674;2023-02-21T12:04:03;101246.88;;;10.55;100.00
47753;BME280;2038;51.728;6.674;2023-02-21T12:09:58;101244.47;;;10.68;100.00
47753;BME280;2038;51.728;6.674;2023-02-21T12:12:46;101252.44;;;10.73;100.00
47753;BME280;2038;51.728;6.674;2023-02-21T12:15:42;101252.03;;;10.78;100.00
47753;BME280;2038;51.728;6.674;2023-02-21T12:33:40;101232.28;;;10.99;100.00
47753;BME280;2038;51.728;6.674;2023-02-21T12:39:43;101228.13;;;11.13;100.00
47753;BME280;2038;51.728;6.674;2023-02-21T12:45:20;101208.69;;;11.26;100.00
47753;BME280;2038;51.728;6.674;2023-02-21T12:48:12;101210.00;;;11.33;100.00
47753;BME280;2038;51.728;6.674;2023-02-21T12:50:53;101209.31;;;11.36;100.00
47753;BME280;2038;51.728;6.674;2023-02-21T12:53:40;101208.28;;;11.45;100.00
47753;BME280;2038;51.728;6.674;2023-02-21T12:56:23;101194.41;;;11.53;100.00
47753;BME280;2038;51.728;6.674;2023-02-21T12:59:18;101190.88;;;11.51;100.00
47753;BME280;2038;51.728;6.674;2023-02-21T13:01:58;101191.97;;;11.55;100.00
47753;BME280;2038;51.728;6.674;2023-02-21T13:07:31;101186.16;;;11.57;100.00
47753;BME280;2038;51.728;6.674;2023-02-21T13:10:18;101180.09;;;11.55;100.00
47753;BME280;2038;51.728;6.674;2023-02-21T13:12:57;101181.69;;;11.66;100.00
47753;BME280;2038;51.728;6.674;2023-02-21T13:15:30;101176.56;;;11.78;100.00
47753;BME280;2038;51.728;6.674;2023-02-21T13:18:07;101178.91;;;11.88;100.00
47753;BME280;2038;51.728;6.674;2023-02-21T13:20:46;101174.06;;;11.80;100.00
47753;BME280;2038;51.728;6.674;2023-02-21T13:30:10;101175.25;;;12.09;100.00
47753;BME280;2038;51.728;6.674;2023-02-21T13:32:51;101159.81;;;12.08;100.00
47753;BME280;2038;51.728;6.674;2023-02-21T13:35:52;101165.34;;;12.14;100.00
47753;BME280;2038;51.728;6.674;2023-02-21T13:38:27;101161.09;;;12.14;100.00
47753;BME280;2038;51.728;6.674;2023-02-21T13:41:07;101159.03;;;12.09;100.00
47753;BME280;2038;51.728;6.674;2023-02-21T13:43:45;101158.25;;;12.10;100.00
47753;BME280;2038;51.728;6.674;2023-02-21T13:49:37;101153.22;;;11.98;100.00
47753;BME280;2038;51.728;6.674;2023-02-21T14:08:35;101150.09;;;12.02;100.00
47753;BME280;2038;51.728;6.674;2023-02-21T14:13:53;101153.09;;;11.97;100.00
47753;BME280;2038;51.728;6.674;2023-02-21T14:16:44;101148.59;;;11.93;100.00
47753;BME280;2038;51.728;6.674;2023-02-21T14:19:40;101146.59;;;11.89;100.00
47753;BME280;2038;51.728;6.674;2023-02-21T14:22:29;101144.59;;;11.71;100.00
47753;BME280;2038;51.728;6.674;2023-02-21T14:25:16;101141.56;;;11.77;100.00
47753;BME280;2038;51.728;6.674;2023-02-21T14:27:46;101141.56;;;11.77;100.00
47753;BME280;2038;51.728;6.674;2023-02-21T14:32:43;101131.50;;;11.67;100.00
47753;BME280;2038;51.728;6.674;2023-02-21T14:35:45;101128.63;;;11.74;100.00
47753;BME280;2038;51.728;6.674;2023-02-21T14:38:24;101126.84;;;11.73;100.00
47753;BME280;2038;51.728;6.674;2023-02-21T14:48:14;101124.94;;;11.70;100.00
47753;BME280;2038;51.728;6.674;2023-02-21T14:54:52;101123.34;;;11.59;100.00
47753;BME280;2038;51.728;6.674;2023-02-21T15:01:22;101122.53;;;11.60;100.00
47753;BME280;2038;51.728;6.674;2023-02-21T15:07:21;101115.63;;;11.71;100.00
47753;BME280;2038;51.728;6.674;2023-02-21T15:10:09;101120.88;;;11.61;100.00
47753;BME280;2038;51.728;6.674;2023-02-21T15:12:59;101118.13;;;11.58;100.00
47753;BME280;2038;51.728;6.674;2023-02-21T15:15:30;101118.63;;;11.65;100.00
47753;BME280;2038;51.728;6.674;2023-02-21T15:18:33;101112.56;;;11.63;100.00
47753;BME280;2038;51.728;6.674;2023-02-21T15:23:39;101118.38;;;11.49;100.00
47753;BME280;2038;51.728;6.674;2023-02-21T15:26:23;101113.16;;;11.48;100.00
47753;BME280;2038;51.728;6.674;2023-02-21T15:29:16;101112.09;;;11.44;100.00
47753;BME280;2038;51.728;6.674;2023-02-21T15:34:27;101112.13;;;11.57;100.00
47753;BME280;2038;51.728;6.674;2023-02-21T15:37:22;101106.50;;;11.50;100.00
47753;BME280;2038;51.728;6.674;2023-02-21T15:40:01;101104.91;;;11.39;100.00
47753;BME280;2038;51.728;6.674;2023-02-21T15:42:40;101106.38;;;11.35;100.00
47753;BME280;2038;51.728;6.674;2023-02-21T15:45:15;101107.34;;;11.37;100.00
47753;BME280;2038;51.728;6.674;2023-02-21T15:47:44;101103.72;;;11.34;100.00
47753;BME280;2038;51.728;6.674;2023-02-21T15:50:30;101103.84;;;11.35;100.00
47753;BME280;2038;51.728;6.674;2023-02-21T15:53:23;101102.50;;;11.28;100.00
47753;BME280;2038;51.728;6.674;2023-02-21T15:55:51;101095.44;;;11.24;100.00
47753;BME280;2038;51.728;6.674;2023-02-21T15:58:24;101095.69;;;11.16;100.00
47753;BME280;2038;51.728;6.674;2023-02-21T16:01:11;101098.72;;;11.10;100.00
47753;BME280;2038;51.728;6.674;2023-02-21T16:03:42;101088.41;;;11.09;100.00
47753;BME280;2038;51.728;6.674;2023-02-21T16:06:23;101088.72;;;11.13;100.00
47753;BME280;2038;51.728;6.674;2023-02-21T16:08:54;101081.63;;;11.09;100.00
47753;BME280;2038;51.728;6.674;2023-02-21T16:19:44;101087.47;;;10.95;100.00
47753;BME280;2038;51.728;6.674;2023-02-21T16:22:36;101083.75;;;11.03;100.00